createdAt,value
2022-08-31T00:03:43.497Z,18.27
2022-08-31T00:08:50.173Z,18.31
2022-08-31T00:13:55.076Z,18.30
2022-08-31T00:19:01.925Z,18.28
2022-08-31T00:24:07.031Z,18.23
2022-08-31T00:29:11.625Z,18.17
2022-08-31T00:34:17.391Z,18.16
2022-08-31T00:39:22.636Z,18.15
2022-08-31T00:44:26.766Z,18.13
2022-08-31T00:49:37.673Z,18.13
2022-08-31T00:54:48.671Z,18.14
2022-08-31T00:59:52.937Z,18.18
2022-08-31T01:04:59.951Z,18.12
2022-08-31T01:10:06.835Z,18.12
2022-08-31T01:15:12.528Z,18.03
2022-08-31T01:20:26.843Z,18.07
2022-08-31T01:25:34.055Z,18.08
2022-08-31T01:30:39.191Z,18.09
2022-08-31T01:35:46.949Z,18.10
2022-08-31T01:40:56.917Z,18.00
2022-08-31T01:46:04.986Z,17.97
2022-08-31T01:51:15.214Z,17.98
2022-08-31T01:56:24.467Z,17.99
2022-08-31T02:01:34.661Z,17.96
2022-08-31T02:06:42.604Z,17.96
2022-08-31T02:11:49.196Z,17.94
2022-08-31T02:16:55.016Z,17.91
2022-08-31T02:21:59.710Z,17.86
2022-08-31T02:27:06.149Z,17.84
2022-08-31T02:32:19.515Z,17.85
2022-08-31T02:37:23.580Z,17.83
2022-08-31T02:42:52.335Z,17.81
2022-08-31T02:47:56.270Z,17.77
2022-08-31T02:53:00.043Z,17.70
2022-08-31T02:58:09.303Z,17.65
2022-08-31T03:03:13.347Z,17.65
2022-08-31T03:08:17.086Z,17.63
2022-08-31T03:13:22.384Z,17.63
2022-08-31T03:18:28.322Z,17.56
2022-08-31T03:23:32.599Z,17.53
2022-08-31T03:28:39.371Z,17.51
2022-08-31T03:33:42.540Z,17.48
2022-08-31T03:38:46.042Z,17.43
2022-08-31T03:43:52.315Z,17.45
2022-08-31T03:48:55.955Z,17.44
2022-08-31T03:54:00.189Z,17.44
2022-08-31T03:59:09.439Z,17.42
2022-08-31T04:04:14.387Z,17.43
2022-08-31T04:09:18.182Z,17.42
2022-08-31T04:14:22.886Z,17.41
2022-08-31T04:19:26.627Z,17.42
2022-08-31T04:24:32.396Z,17.37
2022-08-31T04:29:37.351Z,17.33
2022-08-31T04:34:40.608Z,17.33
2022-08-31T04:39:50.653Z,17.36
2022-08-31T04:44:57.389Z,17.37
2022-08-31T04:50:03.026Z,17.35
2022-08-31T04:55:07.886Z,17.35
2022-08-31T05:00:13.945Z,17.35
2022-08-31T05:05:21.456Z,17.34
2022-08-31T05:10:28.354Z,17.35
2022-08-31T05:15:34.843Z,17.36
2022-08-31T05:20:38.294Z,17.32
2022-08-31T05:25:44.024Z,17.34
2022-08-31T05:30:48.698Z,17.39
2022-08-31T05:35:51.898Z,17.45
2022-08-31T05:40:56.549Z,17.47
2022-08-31T05:46:10.280Z,17.44
2022-08-31T05:51:16.111Z,17.52
2022-08-31T05:56:21.923Z,17.57
2022-08-31T06:01:30.829Z,17.61
2022-08-31T06:06:34.214Z,17.59
2022-08-31T06:11:42.406Z,17.63
2022-08-31T06:16:50.892Z,17.73
2022-08-31T06:21:57.344Z,17.97
2022-08-31T06:27:07.359Z,17.95
2022-08-31T06:32:15.906Z,18.09
2022-08-31T06:37:20.781Z,18.20
2022-08-31T06:42:25.302Z,18.39
2022-08-31T06:47:33.435Z,18.40
2022-08-31T06:52:39.163Z,18.37
2022-08-31T06:57:45.652Z,18.44
2022-08-31T07:02:57.256Z,18.49
2022-08-31T07:08:02.751Z,18.58
2022-08-31T07:13:06.952Z,18.64
2022-08-31T07:18:14.541Z,18.71
2022-08-31T07:23:18.490Z,18.78
2022-08-31T07:28:25.363Z,19.03
2022-08-31T07:33:38.369Z,19.18
2022-08-31T07:39:00.212Z,19.39
2022-08-31T07:44:04.217Z,19.56
2022-08-31T07:49:13.058Z,19.73
2022-08-31T07:54:21.158Z,19.98
2022-08-31T07:59:25.186Z,20.28
2022-08-31T08:04:31.705Z,20.29
2022-08-31T08:09:35.651Z,20.26
2022-08-31T08:14:41.097Z,20.88
2022-08-31T08:19:45.656Z,21.53
2022-08-31T08:24:49.813Z,21.35
2022-08-31T08:29:53.569Z,21.52
2022-08-31T08:34:58.695Z,21.55
2022-08-31T08:40:06.382Z,21.63
2022-08-31T08:45:11.671Z,21.79
2022-08-31T08:50:19.016Z,22.04
2022-08-31T08:55:27.703Z,22.21
2022-08-31T09:00:31.662Z,22.42
2022-08-31T09:06:02.085Z,22.69
2022-08-31T09:11:18.005Z,22.63
2022-08-31T09:16:41.416Z,22.71
2022-08-31T09:21:53.296Z,22.78
2022-08-31T09:27:05.249Z,22.83
2022-08-31T09:32:10.908Z,22.96
2022-08-31T09:37:24.330Z,23.08
2022-08-31T09:42:32.135Z,23.00
2022-08-31T09:47:51.597Z,22.78
2022-08-31T09:53:26.389Z,22.81
2022-08-31T09:58:34.047Z,22.71
2022-08-31T10:03:39.587Z,22.78
2022-08-31T10:08:57.949Z,22.61
2022-08-31T10:14:07.715Z,22.69
2022-08-31T10:19:18.105Z,22.72
2022-08-31T10:24:34.708Z,22.90
2022-08-31T10:29:47.831Z,22.85
2022-08-31T10:35:06.435Z,22.76
2022-08-31T10:40:25.349Z,22.85
2022-08-31T10:45:57.421Z,22.94
2022-08-31T10:51:18.669Z,23.01
2022-08-31T10:56:41.711Z,23.18
2022-08-31T11:01:57.373Z,23.15
2022-08-31T11:07:07.344Z,23.20
2022-08-31T11:12:19.069Z,23.46
2022-08-31T11:17:40.226Z,23.67
2022-08-31T11:23:11.034Z,23.73
2022-08-31T11:28:29.092Z,23.68
2022-08-31T11:33:33.040Z,23.60
2022-08-31T11:38:52.655Z,23.39
2022-08-31T11:43:57.481Z,23.56
2022-08-31T11:49:01.259Z,23.68
2022-08-31T11:54:07.271Z,23.75
2022-08-31T11:59:27.290Z,24.05
2022-08-31T12:05:00.996Z,24.01
2022-08-31T12:10:34.262Z,24.15
2022-08-31T12:16:05.332Z,24.16
2022-08-31T12:21:31.641Z,24.09
2022-08-31T12:26:50.589Z,24.15
2022-08-31T12:32:28.659Z,24.17
2022-08-31T12:37:35.034Z,24.05
2022-08-31T12:42:42.539Z,23.95
2022-08-31T12:48:00.616Z,23.86
2022-08-31T12:53:39.831Z,23.80
2022-08-31T12:59:06.856Z,23.78
2022-08-31T13:04:13.476Z,23.76
2022-08-31T13:09:36.674Z,23.82
2022-08-31T13:14:44.571Z,23.80
2022-08-31T13:19:52.939Z,23.78
2022-08-31T13:24:58.873Z,23.80
2022-08-31T13:30:19.266Z,23.90
2022-08-31T13:35:27.723Z,23.83
2022-08-31T13:40:33.639Z,23.89
2022-08-31T13:45:43.297Z,23.77
2022-08-31T13:50:53.115Z,23.89
2022-08-31T13:55:56.781Z,23.90
2022-08-31T14:01:20.060Z,23.93
2022-08-31T14:06:26.712Z,23.79
2022-08-31T14:11:32.144Z,23.73
2022-08-31T14:16:38.324Z,23.81
2022-08-31T14:21:43.789Z,23.83
2022-08-31T14:26:46.970Z,23.76
2022-08-31T14:31:53.059Z,23.85
2022-08-31T14:37:02.629Z,23.82
2022-08-31T14:42:08.768Z,23.79
2022-08-31T14:47:12.489Z,23.88
2022-08-31T14:52:17.455Z,23.84
2022-08-31T14:57:25.585Z,23.84
2022-08-31T15:02:33.712Z,23.77
2022-08-31T15:07:42.707Z,23.69
2022-08-31T15:12:46.813Z,23.60
2022-08-31T15:17:52.149Z,23.51
2022-08-31T15:22:57.701Z,23.44
2022-08-31T15:28:03.063Z,23.36
2022-08-31T15:33:08.486Z,23.34
2022-08-31T15:38:13.882Z,23.28
2022-08-31T15:43:19.073Z,23.25
2022-08-31T15:48:39.894Z,23.22
2022-08-31T15:53:52.713Z,23.21
2022-08-31T15:59:12.678Z,23.19
2022-08-31T16:04:20.829Z,23.12
2022-08-31T16:09:26.067Z,23.07
2022-08-31T16:14:31.912Z,23.00
2022-08-31T16:19:37.145Z,22.93
2022-08-31T16:24:45.408Z,22.94
2022-08-31T16:29:51.038Z,22.88
2022-08-31T16:34:55.036Z,22.83
2022-08-31T16:40:00.336Z,22.78
2022-08-31T16:45:04.090Z,22.73
2022-08-31T16:50:11.262Z,22.65
2022-08-31T16:55:17.979Z,22.58
2022-08-31T17:00:28.913Z,22.49
2022-08-31T17:05:37.035Z,22.38
2022-08-31T17:10:42.638Z,22.30
2022-08-31T17:15:54.454Z,22.22
2022-08-31T17:20:58.118Z,22.14
2022-08-31T17:26:06.375Z,22.08
2022-08-31T17:31:11.714Z,21.99
2022-08-31T17:36:20.489Z,21.87
2022-08-31T17:41:26.785Z,21.82
2022-08-31T17:46:30.321Z,21.73
2022-08-31T17:51:35.465Z,21.62
2022-08-31T17:56:47.628Z,21.52
2022-08-31T18:01:54.567Z,21.44
2022-08-31T18:07:01.742Z,21.32
2022-08-31T18:12:07.996Z,21.24
2022-08-31T18:17:16.410Z,21.16
2022-08-31T18:22:21.586Z,21.08
2022-08-31T18:27:28.231Z,20.97
2022-08-31T18:32:37.173Z,20.91
2022-08-31T18:37:41.211Z,20.83
2022-08-31T18:43:05.815Z,20.74
2022-08-31T18:48:26.040Z,20.61
2022-08-31T18:53:32.683Z,20.56
2022-08-31T18:58:41.014Z,20.48
2022-08-31T19:03:46.308Z,20.39
2022-08-31T19:08:50.084Z,20.31
2022-08-31T19:13:57.127Z,20.23
2022-08-31T19:19:02.708Z,20.16
2022-08-31T19:24:10.672Z,20.08
2022-08-31T19:29:22.878Z,19.99
2022-08-31T19:34:29.481Z,19.92
2022-08-31T19:39:37.200Z,19.85
2022-08-31T19:44:55.690Z,19.77
2022-08-31T19:50:15.244Z,19.71
2022-08-31T19:55:18.561Z,19.66
2022-08-31T20:00:23.284Z,19.58
2022-08-31T20:05:27.283Z,19.53
2022-08-31T20:10:30.989Z,19.49
2022-08-31T20:15:41.701Z,19.47
2022-08-31T20:20:46.705Z,19.38
2022-08-31T20:25:52.310Z,19.35
2022-08-31T20:31:01.397Z,19.28
2022-08-31T20:36:18.383Z,19.23
2022-08-31T20:41:22.216Z,19.16
2022-08-31T20:46:46.307Z,19.10
2022-08-31T20:51:50.698Z,19.03
2022-08-31T20:56:55.930Z,18.98
2022-08-31T21:02:03.838Z,18.92
2022-08-31T21:07:12.365Z,18.86
2022-08-31T21:12:17.847Z,18.79
2022-08-31T21:17:23.920Z,18.73
2022-08-31T21:22:28.105Z,18.69
2022-08-31T21:27:35.079Z,18.63
2022-08-31T21:32:41.843Z,18.57
2022-08-31T21:37:45.537Z,18.49
2022-08-31T21:42:49.517Z,18.42
2022-08-31T21:47:54.733Z,18.35
2022-08-31T21:53:00.536Z,18.29
2022-08-31T21:58:04.163Z,18.23
2022-08-31T22:03:10.944Z,18.16
2022-08-31T22:08:14.675Z,18.10
2022-08-31T22:13:21.146Z,18.03
2022-08-31T22:18:59.750Z,17.97
2022-08-31T22:23:51.596Z,17.90
2022-08-31T22:28:57.809Z,17.83
2022-08-31T22:34:06.471Z,17.79
2022-08-31T22:39:13.010Z,17.71
2022-08-31T22:44:21.090Z,17.64
2022-08-31T22:49:27.305Z,17.59
2022-08-31T22:54:32.527Z,17.55
2022-08-31T22:59:36.389Z,17.50
2022-08-31T23:04:43.977Z,17.47
2022-08-31T23:09:47.331Z,17.45
2022-08-31T23:14:50.942Z,17.40
2022-08-31T23:19:55.521Z,17.36
2022-08-31T23:25:02.064Z,17.33
2022-08-31T23:30:08.403Z,17.28
2022-08-31T23:35:16.682Z,17.23
2022-08-31T23:40:20.953Z,17.16
2022-08-31T23:45:27.818Z,17.13
2022-08-31T23:50:38.837Z,17.11
2022-08-31T23:55:44.967Z,17.12
